sensor_id;sensor_type;location;lat;lon;timestamp;P1;durP1;ratioP1;P2;durP2;ratioP2
32319;SDS011;19080;51.750;5.888;2022-08-19T00:00:49;4.75;;;4.38;;
32319;SDS011;19080;51.750;5.888;2022-08-19T00:03:16;5.38;;;4.88;;
32319;SDS011;19080;51.750;5.888;2022-08-19T00:05:43;5.28;;;4.88;;
32319;SDS011;19080;51.750;5.888;2022-08-19T00:08:09;5.07;;;4.70;;
32319;SDS011;19080;51.750;5.888;2022-08-19T00:10:36;5.72;;;4.75;;
32319;SDS011;19080;51.750;5.888;2022-08-19T00:13:02;5.55;;;5.10;;
32319;SDS011;19080;51.750;5.888;2022-08-19T00:15:30;6.03;;;5.53;;
32319;SDS011;19080;51.750;5.888;2022-08-19T00:17:56;6.22;;;5.72;;
32319;SDS011;19080;51.750;5.888;2022-08-19T00:20:23;4.78;;;4.40;;
32319;SDS011;19080;51.750;5.888;2022-08-19T00:22:49;5.28;;;4.80;;
32319;SDS011;19080;51.750;5.888;2022-08-19T00:25:16;5.80;;;5.30;;
32319;SDS011;19080;51.750;5.888;2022-08-19T00:27:43;6.88;;;6.15;;
32319;SDS011;19080;51.750;5.888;2022-08-19T00:30:09;5.65;;;5.07;;
32319;SDS011;19080;51.750;5.888;2022-08-19T00:32:37;6.97;;;6.28;;
32319;SDS011;19080;51.750;5.888;2022-08-19T00:35:03;6.20;;;5.70;;
32319;SDS011;19080;51.750;5.888;2022-08-19T00:37:30;6.05;;;5.53;;
32319;SDS011;19080;51.750;5.888;2022-08-19T00:39:56;6.45;;;5.85;;
32319;SDS011;19080;51.750;5.888;2022-08-19T00:42:23;6.85;;;6.25;;
32319;SDS011;19080;51.750;5.888;2022-08-19T00:44:49;7.57;;;6.82;;
32319;SDS011;19080;51.750;5.888;2022-08-19T00:47:17;6.97;;;6.38;;
32319;SDS011;19080;51.750;5.888;2022-08-19T00:49:45;7.43;;;6.72;;
32319;SDS011;19080;51.750;5.888;2022-08-19T00:52:27;8.00;;;7.20;;
32319;SDS011;19080;51.750;5.888;2022-08-19T00:54:56;6.97;;;6.38;;
32319;SDS011;19080;51.750;5.888;2022-08-19T00:57:30;5.82;;;5.40;;
32319;SDS011;19080;51.750;5.888;2022-08-19T00:59:59;6.80;;;6.20;;
32319;SDS011;19080;51.750;5.888;2022-08-19T01:02:29;7.80;;;7.10;;
32319;SDS011;19080;51.750;5.888;2022-08-19T01:04:56;6.10;;;5.60;;
32319;SDS011;19080;51.750;5.888;2022-08-19T01:07:23;6.40;;;5.82;;
32319;SDS011;19080;51.750;5.888;2022-08-19T01:09:49;6.05;;;5.55;;
32319;SDS011;19080;51.750;5.888;2022-08-19T01:12:16;6.43;;;5.82;;
32319;SDS011;19080;51.750;5.888;2022-08-19T01:14:43;7.43;;;6.72;;
32319;SDS011;19080;51.750;5.888;2022-08-19T01:17:09;7.03;;;6.43;;
32319;SDS011;19080;51.750;5.888;2022-08-19T01:19:39;7.03;;;6.32;;
32319;SDS011;19080;51.750;5.888;2022-08-19T01:24:41;8.98;;;8.20;;
32319;SDS011;19080;51.750;5.888;2022-08-19T01:27:15;8.50;;;7.07;;
32319;SDS011;19080;51.750;5.888;2022-08-19T01:29:43;7.35;;;6.75;;
32319;SDS011;19080;51.750;5.888;2022-08-19T01:32:12;7.47;;;6.88;;
32319;SDS011;19080;51.750;5.888;2022-08-19T01:34:59;8.18;;;7.47;;
32319;SDS011;19080;51.750;5.888;2022-08-19T01:37:28;8.32;;;7.53;;
32319;SDS011;19080;51.750;5.888;2022-08-19T01:39:56;9.48;;;8.45;;
32319;SDS011;19080;51.750;5.888;2022-08-19T01:42:23;9.68;;;8.77;;
32319;SDS011;19080;51.750;5.888;2022-08-19T01:44:56;9.90;;;8.32;;
32319;SDS011;19080;51.750;5.888;2022-08-19T01:47:22;10.25;;;9.13;;
32319;SDS011;19080;51.750;5.888;2022-08-19T01:49:49;9.95;;;8.80;;
32319;SDS011;19080;51.750;5.888;2022-08-19T01:52:15;11.77;;;10.65;;
32319;SDS011;19080;51.750;5.888;2022-08-19T01:54:41;10.60;;;9.20;;
32319;SDS011;19080;51.750;5.888;2022-08-19T01:57:08;10.55;;;9.55;;
32319;SDS011;19080;51.750;5.888;2022-08-19T01:59:36;12.98;;;11.80;;
32319;SDS011;19080;51.750;5.888;2022-08-19T02:02:03;11.07;;;9.98;;
32319;SDS011;19080;51.750;5.888;2022-08-19T02:04:33;11.30;;;10.30;;
32319;SDS011;19080;51.750;5.888;2022-08-19T02:07:00;10.90;;;9.80;;
32319;SDS011;19080;51.750;5.888;2022-08-19T02:09:27;11.68;;;10.57;;
32319;SDS011;19080;51.750;5.888;2022-08-19T02:11:54;12.05;;;10.95;;
32319;SDS011;19080;51.750;5.888;2022-08-19T02:14:20;13.05;;;11.40;;
32319;SDS011;19080;51.750;5.888;2022-08-19T02:16:46;12.43;;;11.25;;
32319;SDS011;19080;51.750;5.888;2022-08-19T02:19:14;12.10;;;11.00;;
32319;SDS011;19080;51.750;5.888;2022-08-19T02:21:40;11.18;;;10.23;;
32319;SDS011;19080;51.750;5.888;2022-08-19T02:24:06;11.38;;;10.25;;
32319;SDS011;19080;51.750;5.888;2022-08-19T02:26:33;11.77;;;10.77;;
32319;SDS011;19080;51.750;5.888;2022-08-19T02:28:59;11.63;;;10.52;;
32319;SDS011;19080;51.750;5.888;2022-08-19T02:31:26;14.23;;;12.93;;
32319;SDS011;19080;51.750;5.888;2022-08-19T02:33:54;13.90;;;12.43;;
32319;SDS011;19080;51.750;5.888;2022-08-19T02:36:22;12.13;;;11.02;;
32319;SDS011;19080;51.750;5.888;2022-08-19T02:38:50;12.15;;;11.00;;
32319;SDS011;19080;51.750;5.888;2022-08-19T02:41:28;11.75;;;10.70;;
32319;SDS011;19080;51.750;5.888;2022-08-19T02:43:55;11.70;;;10.70;;
32319;SDS011;19080;51.750;5.888;2022-08-19T02:46:45;12.32;;;11.23;;
32319;SDS011;19080;51.750;5.888;2022-08-19T02:49:11;12.43;;;11.23;;
32319;SDS011;19080;51.750;5.888;2022-08-19T02:51:39;11.57;;;10.57;;
32319;SDS011;19080;51.750;5.888;2022-08-19T02:54:06;12.15;;;11.07;;
32319;SDS011;19080;51.750;5.888;2022-08-19T02:56:36;11.60;;;10.50;;
32319;SDS011;19080;51.750;5.888;2022-08-19T02:59:03;12.40;;;11.30;;
32319;SDS011;19080;51.750;5.888;2022-08-19T03:01:37;10.93;;;9.93;;
32319;SDS011;19080;51.750;5.888;2022-08-19T03:04:07;11.88;;;10.75;;
32319;SDS011;19080;51.750;5.888;2022-08-19T03:06:41;12.13;;;11.02;;
32319;SDS011;19080;51.750;5.888;2022-08-19T03:09:08;13.25;;;11.95;;
32319;SDS011;19080;51.750;5.888;2022-08-19T03:11:35;11.93;;;10.82;;
32319;SDS011;19080;51.750;5.888;2022-08-19T03:14:02;12.77;;;11.63;;
32319;SDS011;19080;51.750;5.888;2022-08-19T03:16:29;12.98;;;11.85;;
32319;SDS011;19080;51.750;5.888;2022-08-19T03:18:59;11.82;;;10.70;;
32319;SDS011;19080;51.750;5.888;2022-08-19T03:21:28;11.82;;;10.73;;
32319;SDS011;19080;51.750;5.888;2022-08-19T03:23:55;17.92;;;13.02;;
32319;SDS011;19080;51.750;5.888;2022-08-19T03:26:21;15.05;;;13.45;;
32319;SDS011;19080;51.750;5.888;2022-08-19T03:28:48;16.85;;;15.23;;
32319;SDS011;19080;51.750;5.888;2022-08-19T03:31:24;13.25;;;11.95;;
32319;SDS011;19080;51.750;5.888;2022-08-19T03:34:11;13.80;;;12.45;;
32319;SDS011;19080;51.750;5.888;2022-08-19T03:36:38;16.85;;;15.27;;
32319;SDS011;19080;51.750;5.888;2022-08-19T03:39:05;15.77;;;14.27;;
32319;SDS011;19080;51.750;5.888;2022-08-19T03:41:32;15.07;;;13.63;;
32319;SDS011;19080;51.750;5.888;2022-08-19T03:44:20;13.77;;;12.35;;
32319;SDS011;19080;51.750;5.888;2022-08-19T03:46:54;13.93;;;12.55;;
32319;SDS011;19080;51.750;5.888;2022-08-19T03:49:22;13.32;;;12.15;;
32319;SDS011;19080;51.750;5.888;2022-08-19T03:51:54;12.55;;;11.35;;
32319;SDS011;19080;51.750;5.888;2022-08-19T03:54:21;13.70;;;12.40;;
32319;SDS011;19080;51.750;5.888;2022-08-19T03:56:49;12.52;;;11.43;;
32319;SDS011;19080;51.750;5.888;2022-08-19T03:59:19;12.90;;;11.70;;
32319;SDS011;19080;51.750;5.888;2022-08-19T04:01:46;15.65;;;14.15;;
32319;SDS011;19080;51.750;5.888;2022-08-19T04:04:12;13.48;;;12.27;;
32319;SDS011;19080;51.750;5.888;2022-08-19T04:06:39;14.10;;;12.70;;
32319;SDS011;19080;51.750;5.888;2022-08-19T04:09:06;20.25;;;18.25;;
32319;SDS011;19080;51.750;5.888;2022-08-19T04:11:34;16.25;;;14.65;;
32319;SDS011;19080;51.750;5.888;2022-08-19T04:14:10;16.20;;;14.63;;
32319;SDS011;19080;51.750;5.888;2022-08-19T04:16:36;15.80;;;14.35;;
32319;SDS011;19080;51.750;5.888;2022-08-19T04:19:04;14.93;;;13.55;;
32319;SDS011;19080;51.750;5.888;2022-08-19T04:21:30;15.73;;;14.13;;
32319;SDS011;19080;51.750;5.888;2022-08-19T04:23:57;18.15;;;16.45;;
32319;SDS011;19080;51.750;5.888;2022-08-19T04:26:26;16.45;;;14.95;;
32319;SDS011;19080;51.750;5.888;2022-08-19T04:28:53;16.27;;;14.77;;
32319;SDS011;19080;51.750;5.888;2022-08-19T04:31:21;17.60;;;15.93;;
32319;SDS011;19080;51.750;5.888;2022-08-19T04:33:48;17.98;;;16.13;;
32319;SDS011;19080;51.750;5.888;2022-08-19T04:36:16;18.95;;;17.15;;
32319;SDS011;19080;51.750;5.888;2022-08-19T04:38:50;17.27;;;15.57;;
32319;SDS011;19080;51.750;5.888;2022-08-19T04:41:17;21.60;;;19.55;;
32319;SDS011;19080;51.750;5.888;2022-08-19T04:44:02;26.65;;;23.95;;
32319;SDS011;19080;51.750;5.888;2022-08-19T04:46:30;30.05;;;27.05;;
32319;SDS011;19080;51.750;5.888;2022-08-19T04:49:16;27.70;;;25.00;;
32319;SDS011;19080;51.750;5.888;2022-08-19T04:51:45;28.73;;;25.85;;
32319;SDS011;19080;51.750;5.888;2022-08-19T04:54:13;28.05;;;25.25;;
32319;SDS011;19080;51.750;5.888;2022-08-19T04:57:00;31.52;;;28.27;;
32319;SDS011;19080;51.750;5.888;2022-08-19T04:59:27;29.33;;;26.42;;
32319;SDS011;19080;51.750;5.888;2022-08-19T05:01:54;27.92;;;25.05;;
32319;SDS011;19080;51.750;5.888;2022-08-19T05:04:20;26.77;;;24.08;;
32319;SDS011;19080;51.750;5.888;2022-08-19T05:06:47;31.35;;;28.05;;
32319;SDS011;19080;51.750;5.888;2022-08-19T05:09:14;29.63;;;26.70;;
32319;SDS011;19080;51.750;5.888;2022-08-19T05:11:42;29.75;;;26.75;;
32319;SDS011;19080;51.750;5.888;2022-08-19T05:14:09;27.88;;;25.08;;
32319;SDS011;19080;51.750;5.888;2022-08-19T05:16:35;32.40;;;28.55;;
32319;SDS011;19080;51.750;5.888;2022-08-19T05:19:02;31.88;;;28.70;;
32319;SDS011;19080;51.750;5.888;2022-08-19T05:21:47;27.25;;;24.52;;
32319;SDS011;19080;51.750;5.888;2022-08-19T05:24:32;32.72;;;29.42;;
32319;SDS011;19080;51.750;5.888;2022-08-19T05:27:21;32.13;;;28.85;;
32319;SDS011;19080;51.750;5.888;2022-08-19T05:29:48;30.63;;;27.63;;
32319;SDS011;19080;51.750;5.888;2022-08-19T05:32:14;35.45;;;31.75;;
32319;SDS011;19080;51.750;5.888;2022-08-19T05:34:41;33.85;;;30.38;;
32319;SDS011;19080;51.750;5.888;2022-08-19T05:37:08;32.95;;;29.65;;
32319;SDS011;19080;51.750;5.888;2022-08-19T05:39:35;32.25;;;28.98;;
32319;SDS011;19080;51.750;5.888;2022-08-19T05:42:03;31.77;;;28.60;;
32319;SDS011;19080;51.750;5.888;2022-08-19T05:44:32;34.63;;;31.08;;
32319;SDS011;19080;51.750;5.888;2022-08-19T05:47:00;30.73;;;27.50;;
32319;SDS011;19080;51.750;5.888;2022-08-19T05:49:27;32.70;;;29.45;;
32319;SDS011;19080;51.750;5.888;2022-08-19T05:51:54;30.63;;;27.60;;
32319;SDS011;19080;51.750;5.888;2022-08-19T05:54:22;37.40;;;32.97;;
32319;SDS011;19080;51.750;5.888;2022-08-19T05:56:49;41.83;;;35.42;;
32319;SDS011;19080;51.750;5.888;2022-08-19T05:59:16;48.42;;;40.47;;
32319;SDS011;19080;51.750;5.888;2022-08-19T06:01:44;51.80;;;40.95;;
32319;SDS011;19080;51.750;5.888;2022-08-19T06:04:12;46.42;;;41.33;;
32319;SDS011;19080;51.750;5.888;2022-08-19T06:06:40;56.85;;;43.88;;
32319;SDS011;19080;51.750;5.888;2022-08-19T06:09:07;54.72;;;45.40;;
32319;SDS011;19080;51.750;5.888;2022-08-19T06:14:08;53.00;;;45.25;;
32319;SDS011;19080;51.750;5.888;2022-08-19T06:16:42;49.22;;;41.20;;
32319;SDS011;19080;51.750;5.888;2022-08-19T06:19:10;49.70;;;43.25;;
32319;SDS011;19080;51.750;5.888;2022-08-19T06:21:37;56.65;;;44.20;;
32319;SDS011;19080;51.750;5.888;2022-08-19T06:24:05;50.05;;;42.28;;
32319;SDS011;19080;51.750;5.888;2022-08-19T06:26:33;66.43;;;45.20;;
32319;SDS011;19080;51.750;5.888;2022-08-19T06:29:01;62.38;;;47.00;;
32319;SDS011;19080;51.750;5.888;2022-08-19T06:31:28;62.22;;;47.30;;
32319;SDS011;19080;51.750;5.888;2022-08-19T06:33:54;65.15;;;48.22;;
32319;SDS011;19080;51.750;5.888;2022-08-19T06:38:51;62.72;;;46.15;;
32319;SDS011;19080;51.750;5.888;2022-08-19T06:41:17;60.72;;;47.75;;
32319;SDS011;19080;51.750;5.888;2022-08-19T06:43:44;59.53;;;49.20;;
32319;SDS011;19080;51.750;5.888;2022-08-19T06:46:12;51.83;;;42.20;;
32319;SDS011;19080;51.750;5.888;2022-08-19T06:48:40;54.85;;;42.38;;
32319;SDS011;19080;51.750;5.888;2022-08-19T06:51:11;53.40;;;43.70;;
32319;SDS011;19080;51.750;5.888;2022-08-19T06:53:38;49.10;;;40.92;;
32319;SDS011;19080;51.750;5.888;2022-08-19T06:56:05;46.05;;;38.38;;
32319;SDS011;19080;51.750;5.888;2022-08-19T06:58:32;47.47;;;39.35;;
32319;SDS011;19080;51.750;5.888;2022-08-19T07:00:59;45.05;;;38.13;;
32319;SDS011;19080;51.750;5.888;2022-08-19T07:03:33;40.97;;;35.10;;
32319;SDS011;19080;51.750;5.888;2022-08-19T07:06:03;39.13;;;34.72;;
32319;SDS011;19080;51.750;5.888;2022-08-19T07:11:08;39.75;;;32.85;;
32319;SDS011;19080;51.750;5.888;2022-08-19T07:13:36;39.42;;;34.80;;
32319;SDS011;19080;51.750;5.888;2022-08-19T07:16:07;44.08;;;36.10;;
32319;SDS011;19080;51.750;5.888;2022-08-19T07:18:33;40.53;;;34.55;;
32319;SDS011;19080;51.750;5.888;2022-08-19T07:21:11;41.17;;;34.95;;
32319;SDS011;19080;51.750;5.888;2022-08-19T07:23:37;41.95;;;36.33;;
32319;SDS011;19080;51.750;5.888;2022-08-19T07:26:08;38.88;;;34.78;;
32319;SDS011;19080;51.750;5.888;2022-08-19T07:28:36;41.38;;;35.75;;
32319;SDS011;19080;51.750;5.888;2022-08-19T07:31:12;41.00;;;35.30;;
32319;SDS011;19080;51.750;5.888;2022-08-19T07:33:40;36.22;;;31.25;;
32319;SDS011;19080;51.750;5.888;2022-08-19T07:36:09;38.75;;;33.47;;
32319;SDS011;19080;51.750;5.888;2022-08-19T07:38:37;37.05;;;30.60;;
32319;SDS011;19080;51.750;5.888;2022-08-19T07:41:05;43.28;;;34.63;;
32319;SDS011;19080;51.750;5.888;2022-08-19T07:43:32;39.83;;;35.50;;
32319;SDS011;19080;51.750;5.888;2022-08-19T07:46:00;37.08;;;32.55;;
32319;SDS011;19080;51.750;5.888;2022-08-19T07:48:27;42.53;;;33.00;;
32319;SDS011;19080;51.750;5.888;2022-08-19T07:50:58;35.22;;;31.33;;
32319;SDS011;19080;51.750;5.888;2022-08-19T07:53:28;33.97;;;28.90;;
32319;SDS011;19080;51.750;5.888;2022-08-19T07:55:54;36.28;;;32.22;;
32319;SDS011;19080;51.750;5.888;2022-08-19T07:58:21;38.08;;;33.35;;
32319;SDS011;19080;51.750;5.888;2022-08-19T08:00:49;34.35;;;29.95;;
32319;SDS011;19080;51.750;5.888;2022-08-19T08:03:16;34.88;;;29.92;;
32319;SDS011;19080;51.750;5.888;2022-08-19T08:05:43;36.67;;;32.40;;
32319;SDS011;19080;51.750;5.888;2022-08-19T08:08:28;35.50;;;31.80;;
32319;SDS011;19080;51.750;5.888;2022-08-19T08:11:15;35.45;;;29.10;;
32319;SDS011;19080;51.750;5.888;2022-08-19T08:13:44;36.00;;;31.73;;
32319;SDS011;19080;51.750;5.888;2022-08-19T08:16:10;35.22;;;30.45;;
32319;SDS011;19080;51.750;5.888;2022-08-19T08:18:39;38.75;;;32.42;;
32319;SDS011;19080;51.750;5.888;2022-08-19T08:21:08;39.33;;;32.70;;
32319;SDS011;19080;51.750;5.888;2022-08-19T08:23:35;36.50;;;31.77;;
32319;SDS011;19080;51.750;5.888;2022-08-19T08:26:04;35.20;;;27.73;;
32319;SDS011;19080;51.750;5.888;2022-08-19T08:28:31;34.03;;;30.02;;
32319;SDS011;19080;51.750;5.888;2022-08-19T08:30:58;33.55;;;27.33;;
32319;SDS011;19080;51.750;5.888;2022-08-19T08:33:25;39.65;;;31.42;;
32319;SDS011;19080;51.750;5.888;2022-08-19T08:36:06;31.67;;;28.23;;
32319;SDS011;19080;51.750;5.888;2022-08-19T08:38:33;35.38;;;30.75;;
32319;SDS011;19080;51.750;5.888;2022-08-19T08:41:09;34.17;;;30.48;;
32319;SDS011;19080;51.750;5.888;2022-08-19T08:43:38;33.63;;;26.50;;
32319;SDS011;19080;51.750;5.888;2022-08-19T08:46:15;30.15;;;25.65;;
32319;SDS011;19080;51.750;5.888;2022-08-19T08:49:13;30.60;;;24.08;;
32319;SDS011;19080;51.750;5.888;2022-08-19T08:51:47;28.25;;;23.17;;
32319;SDS011;19080;51.750;5.888;2022-08-19T08:54:25;27.48;;;24.40;;
32319;SDS011;19080;51.750;5.888;2022-08-19T08:56:56;28.67;;;22.98;;
32319;SDS011;19080;51.750;5.888;2022-08-19T08:59:24;24.92;;;22.33;;
32319;SDS011;19080;51.750;5.888;2022-08-19T09:01:52;28.70;;;24.33;;
32319;SDS011;19080;51.750;5.888;2022-08-19T09:04:19;21.55;;;19.33;;
32319;SDS011;19080;51.750;5.888;2022-08-19T09:06:54;26.75;;;20.17;;
32319;SDS011;19080;51.750;5.888;2022-08-19T09:09:30;20.20;;;16.55;;
32319;SDS011;19080;51.750;5.888;2022-08-19T09:12:01;19.25;;;16.83;;
32319;SDS011;19080;51.750;5.888;2022-08-19T09:17:15;22.65;;;18.00;;
32319;SDS011;19080;51.750;5.888;2022-08-19T09:19:59;20.27;;;18.13;;
32319;SDS011;19080;51.750;5.888;2022-08-19T09:22:30;23.48;;;18.17;;
32319;SDS011;19080;51.750;5.888;2022-08-19T09:24:56;23.92;;;18.80;;
32319;SDS011;19080;51.750;5.888;2022-08-19T09:27:24;19.95;;;16.48;;
32319;SDS011;19080;51.750;5.888;2022-08-19T09:30:08;19.98;;;17.40;;
32319;SDS011;19080;51.750;5.888;2022-08-19T09:32:35;21.35;;;19.17;;
32319;SDS011;19080;51.750;5.888;2022-08-19T09:35:02;21.77;;;18.65;;
32319;SDS011;19080;51.750;5.888;2022-08-19T09:40:00;23.48;;;21.08;;
32319;SDS011;19080;51.750;5.888;2022-08-19T09:42:27;20.48;;;17.85;;
32319;SDS011;19080;51.750;5.888;2022-08-19T09:44:55;25.52;;;21.02;;
32319;SDS011;19080;51.750;5.888;2022-08-19T09:47:25;29.15;;;23.20;;
32319;SDS011;19080;51.750;5.888;2022-08-19T09:49:51;24.08;;;21.17;;
32319;SDS011;19080;51.750;5.888;2022-08-19T09:52:18;31.40;;;26.67;;
32319;SDS011;19080;51.750;5.888;2022-08-19T09:54:44;35.85;;;27.08;;
32319;SDS011;19080;51.750;5.888;2022-08-19T09:57:17;31.05;;;24.55;;
32319;SDS011;19080;51.750;5.888;2022-08-19T09:59:44;36.35;;;25.02;;
32319;SDS011;19080;51.750;5.888;2022-08-19T10:02:11;29.63;;;23.30;;
32319;SDS011;19080;51.750;5.888;2022-08-19T10:04:38;26.95;;;21.08;;
32319;SDS011;19080;51.750;5.888;2022-08-19T10:07:23;25.60;;;19.98;;
32319;SDS011;19080;51.750;5.888;2022-08-19T10:10:03;25.15;;;19.63;;
32319;SDS011;19080;51.750;5.888;2022-08-19T10:12:29;27.55;;;22.92;;
32319;SDS011;19080;51.750;5.888;2022-08-19T10:14:56;26.30;;;23.38;;
32319;SDS011;19080;51.750;5.888;2022-08-19T10:17:22;28.13;;;24.02;;
32319;SDS011;19080;51.750;5.888;2022-08-19T10:19:56;25.00;;;20.90;;
32319;SDS011;19080;51.750;5.888;2022-08-19T10:22:23;24.15;;;20.58;;
32319;SDS011;19080;51.750;5.888;2022-08-19T10:24:51;21.65;;;18.83;;
32319;SDS011;19080;51.750;5.888;2022-08-19T10:27:18;23.25;;;20.75;;
32319;SDS011;19080;51.750;5.888;2022-08-19T10:29:45;22.25;;;18.88;;
32319;SDS011;19080;51.750;5.888;2022-08-19T10:32:11;23.70;;;20.40;;
32319;SDS011;19080;51.750;5.888;2022-08-19T10:34:39;23.80;;;20.67;;
32319;SDS011;19080;51.750;5.888;2022-08-19T10:37:14;27.95;;;21.58;;
32319;SDS011;19080;51.750;5.888;2022-08-19T10:39:48;27.45;;;22.77;;
32319;SDS011;19080;51.750;5.888;2022-08-19T10:42:15;22.20;;;19.20;;
32319;SDS011;19080;51.750;5.888;2022-08-19T10:44:43;27.17;;;23.80;;
32319;SDS011;19080;51.750;5.888;2022-08-19T10:47:09;24.00;;;20.63;;
32319;SDS011;19080;51.750;5.888;2022-08-19T10:49:49;25.98;;;21.75;;
32319;SDS011;19080;51.750;5.888;2022-08-19T10:52:37;25.23;;;22.60;;
32319;SDS011;19080;51.750;5.888;2022-08-19T10:55:04;23.00;;;20.45;;
32319;SDS011;19080;51.750;5.888;2022-08-19T10:57:54;23.75;;;21.35;;
32319;SDS011;19080;51.750;5.888;2022-08-19T11:00:28;23.80;;;21.35;;
32319;SDS011;19080;51.750;5.888;2022-08-19T11:02:56;22.27;;;19.92;;
32319;SDS011;19080;51.750;5.888;2022-08-19T11:05:23;19.02;;;17.02;;
32319;SDS011;19080;51.750;5.888;2022-08-19T11:07:50;20.17;;;17.40;;
32319;SDS011;19080;51.750;5.888;2022-08-19T11:10:18;23.17;;;19.48;;
32319;SDS011;19080;51.750;5.888;2022-08-19T11:12:47;24.35;;;21.83;;
32319;SDS011;19080;51.750;5.888;2022-08-19T11:15:14;24.98;;;20.27;;
32319;SDS011;19080;51.750;5.888;2022-08-19T11:17:41;20.40;;;17.70;;
32319;SDS011;19080;51.750;5.888;2022-08-19T11:20:07;21.88;;;19.60;;
32319;SDS011;19080;51.750;5.888;2022-08-19T11:22:34;20.42;;;16.92;;
32319;SDS011;19080;51.750;5.888;2022-08-19T11:25:07;21.63;;;18.50;;
32319;SDS011;19080;51.750;5.888;2022-08-19T11:27:37;20.35;;;17.95;;
32319;SDS011;19080;51.750;5.888;2022-08-19T11:30:04;21.27;;;15.55;;
32319;SDS011;19080;51.750;5.888;2022-08-19T11:32:33;18.50;;;15.52;;
32319;SDS011;19080;51.750;5.888;2022-08-19T11:34:59;19.48;;;16.65;;
32319;SDS011;19080;51.750;5.888;2022-08-19T11:37:26;14.80;;;12.10;;
32319;SDS011;19080;51.750;5.888;2022-08-19T11:39:53;15.85;;;14.10;;
32319;SDS011;19080;51.750;5.888;2022-08-19T11:42:19;18.63;;;14.93;;
32319;SDS011;19080;51.750;5.888;2022-08-19T11:45:05;17.92;;;15.38;;
32319;SDS011;19080;51.750;5.888;2022-08-19T11:47:31;18.85;;;16.75;;
32319;SDS011;19080;51.750;5.888;2022-08-19T11:49:59;21.38;;;18.25;;
32319;SDS011;19080;51.750;5.888;2022-08-19T11:52:25;20.15;;;15.82;;
32319;SDS011;19080;51.750;5.888;2022-08-19T11:54:52;16.27;;;14.27;;
32319;SDS011;19080;51.750;5.888;2022-08-19T11:57:19;15.65;;;13.30;;
32319;SDS011;19080;51.750;5.888;2022-08-19T11:59:50;15.70;;;13.57;;
32319;SDS011;19080;51.750;5.888;2022-08-19T12:02:17;18.17;;;14.05;;
32319;SDS011;19080;51.750;5.888;2022-08-19T12:04:43;13.85;;;12.48;;
32319;SDS011;19080;51.750;5.888;2022-08-19T12:07:10;18.08;;;16.15;;
32319;SDS011;19080;51.750;5.888;2022-08-19T12:09:36;16.23;;;13.38;;
32319;SDS011;19080;51.750;5.888;2022-08-19T12:12:08;20.42;;;14.10;;
32319;SDS011;19080;51.750;5.888;2022-08-19T12:14:34;22.25;;;15.00;;
32319;SDS011;19080;51.750;5.888;2022-08-19T12:17:01;15.55;;;11.63;;
32319;SDS011;19080;51.750;5.888;2022-08-19T12:19:30;16.75;;;14.88;;
32319;SDS011;19080;51.750;5.888;2022-08-19T12:22:00;17.00;;;15.05;;
32319;SDS011;19080;51.750;5.888;2022-08-19T12:24:31;20.65;;;15.35;;
32319;SDS011;19080;51.750;5.888;2022-08-19T12:26:58;17.17;;;13.43;;
32319;SDS011;19080;51.750;5.888;2022-08-19T12:29:28;19.75;;;14.45;;
32319;SDS011;19080;51.750;5.888;2022-08-19T12:31:56;18.60;;;15.60;;
32319;SDS011;19080;51.750;5.888;2022-08-19T12:34:29;15.25;;;13.35;;
32319;SDS011;19080;51.750;5.888;2022-08-19T12:36:56;15.23;;;13.63;;
32319;SDS011;19080;51.750;5.888;2022-08-19T12:39:23;16.05;;;14.35;;
32319;SDS011;19080;51.750;5.888;2022-08-19T12:41:50;18.35;;;14.48;;
32319;SDS011;19080;51.750;5.888;2022-08-19T12:44:20;18.98;;;15.32;;
32319;SDS011;19080;51.750;5.888;2022-08-19T12:46:55;16.13;;;14.35;;
32319;SDS011;19080;51.750;5.888;2022-08-19T12:49:21;18.98;;;14.98;;
32319;SDS011;19080;51.750;5.888;2022-08-19T12:52:08;16.65;;;14.85;;
32319;SDS011;19080;51.750;5.888;2022-08-19T12:54:35;18.25;;;15.57;;
32319;SDS011;19080;51.750;5.888;2022-08-19T12:57:08;13.30;;;11.55;;
32319;SDS011;19080;51.750;5.888;2022-08-19T12:59:35;17.13;;;13.15;;
32319;SDS011;19080;51.750;5.888;2022-08-19T13:02:03;14.27;;;12.77;;
32319;SDS011;19080;51.750;5.888;2022-08-19T13:04:32;16.92;;;15.23;;
32319;SDS011;19080;51.750;5.888;2022-08-19T13:07:01;19.17;;;16.95;;
32319;SDS011;19080;51.750;5.888;2022-08-19T13:09:28;23.13;;;17.65;;
32319;SDS011;19080;51.750;5.888;2022-08-19T13:11:54;18.10;;;16.25;;
32319;SDS011;19080;51.750;5.888;2022-08-19T13:14:22;18.10;;;11.20;;
32319;SDS011;19080;51.750;5.888;2022-08-19T13:16:49;22.20;;;17.65;;
32319;SDS011;19080;51.750;5.888;2022-08-19T13:19:15;18.48;;;16.45;;
32319;SDS011;19080;51.750;5.888;2022-08-19T13:21:42;17.48;;;15.63;;
32319;SDS011;19080;51.750;5.888;2022-08-19T13:24:08;15.68;;;14.02;;
32319;SDS011;19080;51.750;5.888;2022-08-19T13:26:35;20.83;;;17.58;;
32319;SDS011;19080;51.750;5.888;2022-08-19T13:29:01;21.08;;;18.75;;
32319;SDS011;19080;51.750;5.888;2022-08-19T13:31:46;20.08;;;15.65;;
32319;SDS011;19080;51.750;5.888;2022-08-19T13:34:33;20.05;;;17.35;;
32319;SDS011;19080;51.750;5.888;2022-08-19T13:37:01;19.20;;;17.20;;
32319;SDS011;19080;51.750;5.888;2022-08-19T13:39:31;21.08;;;19.10;;
32319;SDS011;19080;51.750;5.888;2022-08-19T13:41:59;17.25;;;15.43;;
32319;SDS011;19080;51.750;5.888;2022-08-19T13:44:27;18.48;;;16.73;;
32319;SDS011;19080;51.750;5.888;2022-08-19T13:47:03;15.23;;;12.88;;
32319;SDS011;19080;51.750;5.888;2022-08-19T13:49:33;13.88;;;12.35;;
32319;SDS011;19080;51.750;5.888;2022-08-19T13:52:03;15.68;;;14.05;;
32319;SDS011;19080;51.750;5.888;2022-08-19T13:54:29;16.30;;;13.88;;
32319;SDS011;19080;51.750;5.888;2022-08-19T13:56:56;17.27;;;15.18;;
32319;SDS011;19080;51.750;5.888;2022-08-19T13:59:22;17.48;;;14.88;;
32319;SDS011;19080;51.750;5.888;2022-08-19T14:01:48;15.18;;;13.68;;
32319;SDS011;19080;51.750;5.888;2022-08-19T14:04:16;14.65;;;13.25;;
32319;SDS011;19080;51.750;5.888;2022-08-19T14:06:42;18.73;;;14.30;;
32319;SDS011;19080;51.750;5.888;2022-08-19T14:09:08;21.88;;;15.23;;
32319;SDS011;19080;51.750;5.888;2022-08-19T14:11:35;15.35;;;13.82;;
32319;SDS011;19080;51.750;5.888;2022-08-19T14:14:01;17.60;;;14.98;;
32319;SDS011;19080;51.750;5.888;2022-08-19T14:16:28;17.25;;;15.43;;
32319;SDS011;19080;51.750;5.888;2022-08-19T14:18:56;18.75;;;15.00;;
32319;SDS011;19080;51.750;5.888;2022-08-19T14:21:23;21.65;;;17.67;;
32319;SDS011;19080;51.750;5.888;2022-08-19T14:23:50;19.52;;;16.10;;
32319;SDS011;19080;51.750;5.888;2022-08-19T14:26:18;19.60;;;17.52;;
32319;SDS011;19080;51.750;5.888;2022-08-19T14:28:44;24.80;;;22.25;;
32319;SDS011;19080;51.750;5.888;2022-08-19T14:31:11;21.85;;;19.33;;
32319;SDS011;19080;51.750;5.888;2022-08-19T14:33:38;22.70;;;20.40;;
32319;SDS011;19080;51.750;5.888;2022-08-19T14:36:06;19.92;;;17.83;;
32319;SDS011;19080;51.750;5.888;2022-08-19T14:38:33;21.10;;;18.83;;
32319;SDS011;19080;51.750;5.888;2022-08-19T14:41:19;21.73;;;19.45;;
32319;SDS011;19080;51.750;5.888;2022-08-19T14:43:47;21.17;;;19.02;;
32319;SDS011;19080;51.750;5.888;2022-08-19T14:46:14;24.75;;;21.27;;
32319;SDS011;19080;51.750;5.888;2022-08-19T14:48:42;20.38;;;17.98;;
32319;SDS011;19080;51.750;5.888;2022-08-19T14:51:08;30.40;;;23.63;;
32319;SDS011;19080;51.750;5.888;2022-08-19T14:53:35;27.15;;;23.02;;